sensor_id;sensor_type;location;lat;lon;timestamp;noise_LAeq;noise_LA_min;noise_LA_max;noise_LA01;noise_LA95
46749;Laerm;33775;47.992;11.864;2023-05-10T00:01:08;37.24;29.92;40.13;;
46749;Laerm;33775;47.992;11.864;2023-05-10T00:03:33;38.73;35.94;40.23;;
46749;Laerm;33775;47.992;11.864;2023-05-10T00:05:59;38.79;36.45;40.43;;
46749;Laerm;33775;47.992;11.864;2023-05-10T00:08:24;39.10;37.12;40.62;;
46749;Laerm;33775;47.992;11.864;2023-05-10T00:10:49;38.99;36.69;40.71;;
46749;Laerm;33775;47.992;11.864;2023-05-10T00:13:14;38.45;36.20;40.13;;
46749;Laerm;33775;47.992;11.864;2023-05-10T00:15:40;38.60;36.45;40.33;;
46749;Laerm;33775;47.992;11.864;2023-05-10T00:18:05;38.51;36.20;40.13;;
46749;Laerm;33775;47.992;11.864;2023-05-10T00:20:30;38.25;34.31;40.03;;
46749;Laerm;33775;47.992;11.864;2023-05-10T00:22:55;38.30;35.31;40.03;;
46749;Laerm;33775;47.992;11.864;2023-05-10T00:25:21;38.18;35.36;40.13;;
46749;Laerm;33775;47.992;11.864;2023-05-10T00:27:46;38.17;33.90;39.81;;
46749;Laerm;33775;47.992;11.864;2023-05-10T00:30:12;38.34;35.66;40.23;;
46749;Laerm;33775;47.992;11.864;2023-05-10T00:32:37;38.45;36.20;40.33;;
46749;Laerm;33775;47.992;11.864;2023-05-10T00:35:02;38.19;35.04;40.13;;
46749;Laerm;33775;47.992;11.864;2023-05-10T00:37:27;38.04;33.90;39.70;;
46749;Laerm;33775;47.992;11.864;2023-05-10T00:39:52;38.00;33.44;39.70;;
46749;Laerm;33775;47.992;11.864;2023-05-10T00:42:18;37.94;33.90;39.81;;
46749;Laerm;33775;47.992;11.864;2023-05-10T00:44:43;37.81;31.68;39.70;;
46749;Laerm;33775;47.992;11.864;2023-05-10T00:47:08;37.64;33.44;39.58;;
46749;Laerm;33775;47.992;11.864;2023-05-10T00:49:34;37.94;30.89;39.70;;
46749;Laerm;33775;47.992;11.864;2023-05-10T00:51:59;37.82;32.35;39.58;;
46749;Laerm;33775;47.992;11.864;2023-05-10T00:54:25;38.02;33.90;39.70;;
46749;Laerm;33775;47.992;11.864;2023-05-10T00:56:50;38.27;35.04;39.92;;
46749;Laerm;33775;47.992;11.864;2023-05-10T00:59:16;38.45;35.94;40.13;;
46749;Laerm;33775;47.992;11.864;2023-05-10T01:01:42;38.38;35.94;40.03;;
46749;Laerm;33775;47.992;11.864;2023-05-10T01:04:07;38.48;36.20;40.23;;
46749;Laerm;33775;47.992;11.864;2023-05-10T01:06:34;38.33;36.20;40.03;;
46749;Laerm;33775;47.992;11.864;2023-05-10T01:08:59;38.18;33.90;39.81;;
46749;Laerm;33775;47.992;11.864;2023-05-10T01:11:24;38.39;35.94;40.13;;
46749;Laerm;33775;47.992;11.864;2023-05-10T01:13:52;38.53;35.94;40.03;;
46749;Laerm;33775;47.992;11.864;2023-05-10T01:16:20;38.52;35.94;40.43;;
46749;Laerm;33775;47.992;11.864;2023-05-10T01:18:45;38.27;35.36;39.81;;
46749;Laerm;33775;47.992;11.864;2023-05-10T01:28:51;38.47;36.20;40.03;;
46749;Laerm;33775;47.992;11.864;2023-05-10T01:34:01;38.24;35.66;40.03;;
46749;Laerm;33775;47.992;11.864;2023-05-10T01:36:32;38.10;33.90;39.81;;
46749;Laerm;33775;47.992;11.864;2023-05-10T01:38:59;37.81;33.90;39.58;;
46749;Laerm;33775;47.992;11.864;2023-05-10T01:46:49;38.14;35.04;39.92;;
46749;Laerm;33775;47.992;11.864;2023-05-10T01:49:22;38.11;34.31;40.03;;
46749;Laerm;33775;47.992;11.864;2023-05-10T01:51:50;38.15;33.90;39.81;;
46749;Laerm;33775;47.992;11.864;2023-05-10T01:54:17;38.30;35.66;40.23;;
46749;Laerm;33775;47.992;11.864;2023-05-10T01:56:44;38.37;35.94;40.23;;
46749;Laerm;33775;47.992;11.864;2023-05-10T01:59:15;38.42;36.45;40.03;;
46749;Laerm;33775;47.992;11.864;2023-05-10T02:01:41;38.30;35.36;39.92;;
46749;Laerm;33775;47.992;11.864;2023-05-10T02:04:08;38.48;35.94;40.13;;
46749;Laerm;33775;47.992;11.864;2023-05-10T02:06:34;38.78;36.69;40.62;;
46749;Laerm;33775;47.992;11.864;2023-05-10T02:09:01;39.08;37.12;40.43;;
46749;Laerm;33775;47.992;11.864;2023-05-10T02:11:26;39.29;37.32;40.71;;
46749;Laerm;33775;47.992;11.864;2023-05-10T02:13:52;39.38;37.32;40.71;;
46749;Laerm;33775;47.992;11.864;2023-05-10T02:16:18;39.52;37.88;40.89;;
46749;Laerm;33775;47.992;11.864;2023-05-10T02:18:45;39.60;37.70;40.89;;
46749;Laerm;33775;47.992;11.864;2023-05-10T02:21:11;39.47;37.87;40.98;;
46749;Laerm;33775;47.992;11.864;2023-05-10T02:23:38;39.29;37.32;40.62;;
46749;Laerm;33775;47.992;11.864;2023-05-10T02:26:03;38.98;36.91;40.33;;
46749;Laerm;33775;47.992;11.864;2023-05-10T02:28:30;39.00;37.12;40.53;;
46749;Laerm;33775;47.992;11.864;2023-05-10T02:30:57;39.25;37.17;40.80;;
46749;Laerm;33775;47.992;11.864;2023-05-10T02:33:22;39.97;38.37;41.22;;
46749;Laerm;33775;47.992;11.864;2023-05-10T02:35:48;39.98;38.52;41.22;;
46749;Laerm;33775;47.992;11.864;2023-05-10T02:38:15;39.77;38.05;40.98;;
46749;Laerm;33775;47.992;11.864;2023-05-10T02:40:41;39.62;37.88;41.06;;
46749;Laerm;33775;47.992;11.864;2023-05-10T02:43:07;39.47;37.70;41.06;;
46749;Laerm;33775;47.992;11.864;2023-05-10T02:45:34;39.42;37.70;40.80;;
46749;Laerm;33775;47.992;11.864;2023-05-10T02:48:00;39.40;37.70;40.80;;
46749;Laerm;33775;47.992;11.864;2023-05-10T02:50:27;39.38;37.53;40.80;;
46749;Laerm;33775;47.992;11.864;2023-05-10T02:52:54;39.60;38.02;40.89;;
46749;Laerm;33775;47.992;11.864;2023-05-10T02:55:22;39.54;37.88;40.98;;
46749;Laerm;33775;47.992;11.864;2023-05-10T02:57:57;39.43;37.88;40.71;;
46749;Laerm;33775;47.992;11.864;2023-05-10T03:00:24;39.48;37.70;40.89;;
46749;Laerm;33775;47.992;11.864;2023-05-10T03:02:49;39.26;37.52;40.62;;
46749;Laerm;33775;47.992;11.864;2023-05-10T03:05:14;39.29;37.52;40.89;;
46749;Laerm;33775;47.992;11.864;2023-05-10T03:07:39;39.05;37.12;40.53;;
46749;Laerm;33775;47.992;11.864;2023-05-10T03:10:05;38.86;37.12;40.43;;
46749;Laerm;33775;47.992;11.864;2023-05-10T03:20:11;39.01;36.91;40.71;;
46749;Laerm;33775;47.992;11.864;2023-05-10T03:22:38;38.65;36.69;40.33;;
46749;Laerm;33775;47.992;11.864;2023-05-10T03:25:06;38.57;36.45;40.43;;
46749;Laerm;33775;47.992;11.864;2023-05-10T03:27:31;38.51;36.45;40.33;;
46749;Laerm;33775;47.992;11.864;2023-05-10T03:29:57;38.40;36.20;40.03;;
46749;Laerm;33775;47.992;11.864;2023-05-10T03:32:22;38.50;36.45;39.92;;
46749;Laerm;33775;47.992;11.864;2023-05-10T03:34:48;38.48;35.94;39.92;;
46749;Laerm;33775;47.992;11.864;2023-05-10T03:37:13;38.50;36.20;40.23;;
46749;Laerm;33775;47.992;11.864;2023-05-10T03:39:38;38.41;36.20;40.13;;
46749;Laerm;33775;47.992;11.864;2023-05-10T03:42:03;38.34;35.94;40.03;;
46749;Laerm;33775;47.992;11.864;2023-05-10T03:44:28;38.35;35.66;40.03;;
46749;Laerm;33775;47.992;11.864;2023-05-10T03:46:54;38.44;36.20;40.13;;
46749;Laerm;33775;47.992;11.864;2023-05-10T03:49:19;38.38;36.45;40.03;;
46749;Laerm;33775;47.992;11.864;2023-05-10T03:51:44;38.40;36.20;40.23;;
46749;Laerm;33775;47.992;11.864;2023-05-10T03:54:09;38.35;36.45;39.92;;
46749;Laerm;33775;47.992;11.864;2023-05-10T03:56:34;38.35;34.31;40.03;;
46749;Laerm;33775;47.992;11.864;2023-05-10T03:59:00;38.48;35.66;40.13;;
46749;Laerm;33775;47.992;11.864;2023-05-10T04:01:25;38.57;36.20;40.13;;
46749;Laerm;33775;47.992;11.864;2023-05-10T04:03:50;38.94;36.45;40.43;;
46749;Laerm;33775;47.992;11.864;2023-05-10T04:06:15;39.50;37.12;40.80;;
46749;Laerm;33775;47.992;11.864;2023-05-10T04:08:41;39.72;38.21;40.89;;
46749;Laerm;33775;47.992;11.864;2023-05-10T04:11:09;39.70;38.21;40.89;;
46749;Laerm;33775;47.992;11.864;2023-05-10T04:13:35;39.75;38.05;41.06;;
46749;Laerm;33775;47.992;11.864;2023-05-10T04:16:00;39.92;38.37;41.06;;
46749;Laerm;33775;47.992;11.864;2023-05-10T04:18:26;39.84;38.21;41.06;;
46749;Laerm;33775;47.992;11.864;2023-05-10T04:20:51;39.71;38.05;40.89;;
46749;Laerm;33775;47.992;11.864;2023-05-10T04:23:16;39.56;37.88;40.98;;
46749;Laerm;33775;47.992;11.864;2023-05-10T04:25:41;39.45;37.70;40.80;;
46749;Laerm;33775;47.992;11.864;2023-05-10T04:28:07;39.16;37.32;40.71;;
46749;Laerm;33775;47.992;11.864;2023-05-10T04:30:32;39.01;37.12;40.43;;
46749;Laerm;33775;47.992;11.864;2023-05-10T04:32:57;38.92;36.91;40.33;;
46749;Laerm;33775;47.992;11.864;2023-05-10T04:35:23;39.21;37.35;40.71;;
46749;Laerm;33775;47.992;11.864;2023-05-10T04:37:48;38.66;36.69;40.23;;
46749;Laerm;33775;47.992;11.864;2023-05-10T04:40:13;38.42;36.45;40.13;;
46749;Laerm;33775;47.992;11.864;2023-05-10T04:42:39;38.32;36.20;39.92;;
46749;Laerm;33775;47.992;11.864;2023-05-10T04:45:06;38.26;35.66;39.92;;
46749;Laerm;33775;47.992;11.864;2023-05-10T04:47:31;38.28;34.69;40.03;;
46749;Laerm;33775;47.992;11.864;2023-05-10T04:49:57;38.15;33.90;40.03;;
46749;Laerm;33775;47.992;11.864;2023-05-10T04:52:22;38.25;35.94;39.92;;
46749;Laerm;33775;47.992;11.864;2023-05-10T04:54:47;38.36;35.04;40.23;;
46749;Laerm;33775;47.992;11.864;2023-05-10T04:57:13;38.99;36.91;40.43;;
46749;Laerm;33775;47.992;11.864;2023-05-10T04:59:38;38.76;33.44;40.80;;
46749;Laerm;33775;47.992;11.864;2023-05-10T05:02:03;37.72;31.68;40.33;;
46749;Laerm;33775;47.992;11.864;2023-05-10T05:04:29;37.01;28.32;39.58;;
46749;Laerm;33775;47.992;11.864;2023-05-10T05:06:55;36.56;26.91;39.46;;
46749;Laerm;33775;47.992;11.864;2023-05-10T05:09:20;37.05;29.57;53.74;;
46749;Laerm;33775;47.992;11.864;2023-05-10T05:11:45;38.35;31.68;40.62;;
46749;Laerm;33775;47.992;11.864;2023-05-10T05:14:10;39.13;36.91;40.71;;
46749;Laerm;33775;47.992;11.864;2023-05-10T05:16:35;38.82;36.56;40.71;;
46749;Laerm;33775;47.992;11.864;2023-05-10T05:19:01;38.83;36.45;40.33;;
46749;Laerm;33775;47.992;11.864;2023-05-10T05:21:26;38.62;36.20;40.23;;
46749;Laerm;33775;47.992;11.864;2023-05-10T05:23:52;38.29;34.31;40.03;;
46749;Laerm;33775;47.992;11.864;2023-05-10T05:26:17;38.31;35.04;40.23;;
46749;Laerm;33775;47.992;11.864;2023-05-10T05:28:42;38.32;35.36;39.92;;
46749;Laerm;33775;47.992;11.864;2023-05-10T05:31:07;38.36;36.20;39.92;;
46749;Laerm;33775;47.992;11.864;2023-05-10T05:33:33;38.64;35.36;40.33;;
46749;Laerm;33775;47.992;11.864;2023-05-10T05:36:00;38.43;35.94;40.13;;
46749;Laerm;33775;47.992;11.864;2023-05-10T05:38:25;38.12;35.04;40.03;;
46749;Laerm;33775;47.992;11.864;2023-05-10T05:40:51;38.21;34.69;39.81;;
46749;Laerm;33775;47.992;11.864;2023-05-10T05:43:16;37.90;32.93;40.03;;
46749;Laerm;33775;47.992;11.864;2023-05-10T05:45:41;37.83;33.44;39.58;;
46749;Laerm;33775;47.992;11.864;2023-05-10T05:48:06;37.75;33.44;39.46;;
46749;Laerm;33775;47.992;11.864;2023-05-10T05:50:31;37.70;32.35;39.70;;
46749;Laerm;33775;47.992;11.864;2023-05-10T05:52:57;37.63;32.93;39.58;;
46749;Laerm;33775;47.992;11.864;2023-05-10T05:55:22;37.72;33.44;39.70;;
46749;Laerm;33775;47.992;11.864;2023-05-10T05:57:48;38.26;31.68;40.33;;
46749;Laerm;33775;47.992;11.864;2023-05-10T06:00:14;38.10;32.35;40.23;;
46749;Laerm;33775;47.992;11.864;2023-05-10T06:02:39;38.74;36.69;40.53;;
46749;Laerm;33775;47.992;11.864;2023-05-10T06:05:04;38.45;36.20;40.13;;
46749;Laerm;33775;47.992;11.864;2023-05-10T06:07:30;38.40;35.04;40.03;;
46749;Laerm;33775;47.992;11.864;2023-05-10T06:09:55;38.65;36.20;40.23;;
46749;Laerm;33775;47.992;11.864;2023-05-10T06:12:20;38.37;35.04;40.13;;
46749;Laerm;33775;47.992;11.864;2023-05-10T06:14:45;38.11;34.69;39.81;;
46749;Laerm;33775;47.992;11.864;2023-05-10T06:17:10;38.23;35.04;39.92;;
46749;Laerm;33775;47.992;11.864;2023-05-10T06:19:36;38.32;35.94;40.03;;
46749;Laerm;33775;47.992;11.864;2023-05-10T06:22:01;38.70;36.20;40.53;;
46749;Laerm;33775;47.992;11.864;2023-05-10T06:24:26;38.51;36.20;40.43;;
46749;Laerm;33775;47.992;11.864;2023-05-10T06:26:52;38.05;32.58;39.81;;
46749;Laerm;33775;47.992;11.864;2023-05-10T06:29:17;37.86;29.92;39.81;;
46749;Laerm;33775;47.992;11.864;2023-05-10T06:31:42;38.41;35.04;40.23;;
46749;Laerm;33775;47.992;11.864;2023-05-10T06:34:08;38.55;36.45;40.13;;
46749;Laerm;33775;47.992;11.864;2023-05-10T06:36:33;38.24;33.90;39.92;;
46749;Laerm;33775;47.992;11.864;2023-05-10T06:38:58;38.03;32.93;39.81;;
46749;Laerm;33775;47.992;11.864;2023-05-10T06:41:23;38.17;32.35;40.03;;
46749;Laerm;33775;47.992;11.864;2023-05-10T06:43:49;38.33;35.31;39.92;;
46749;Laerm;33775;47.992;11.864;2023-05-10T06:46:14;37.85;33.44;39.70;;
46749;Laerm;33775;47.992;11.864;2023-05-10T06:48:39;37.58;32.35;39.58;;
46749;Laerm;33775;47.992;11.864;2023-05-10T06:51:04;37.50;32.93;39.70;;
46749;Laerm;33775;47.992;11.864;2023-05-10T06:53:30;37.56;31.68;39.46;;
46749;Laerm;33775;47.992;11.864;2023-05-10T06:55:55;37.40;29.92;39.58;;
46749;Laerm;33775;47.992;11.864;2023-05-10T06:58:20;37.36;31.68;39.46;;
46749;Laerm;33775;47.992;11.864;2023-05-10T07:00:45;37.41;29.92;39.70;;
46749;Laerm;33775;47.992;11.864;2023-05-10T07:03:11;37.24;30.89;39.58;;
46749;Laerm;33775;47.992;11.864;2023-05-10T07:05:37;36.99;29.92;39.46;;
46749;Laerm;33775;47.992;11.864;2023-05-10T07:08:02;37.02;30.89;39.58;;
46749;Laerm;33775;47.992;11.864;2023-05-10T07:10:27;36.88;30.89;39.58;;
46749;Laerm;33775;47.992;11.864;2023-05-10T07:12:52;36.94;30.89;39.34;;
46749;Laerm;33775;47.992;11.864;2023-05-10T07:15:18;38.32;34.69;40.03;;
46749;Laerm;33775;47.992;11.864;2023-05-10T07:17:43;38.05;32.35;40.13;;
46749;Laerm;33775;47.992;11.864;2023-05-10T07:20:08;37.00;30.89;39.58;;
46749;Laerm;33775;47.992;11.864;2023-05-10T07:22:33;36.79;28.67;39.58;;
46749;Laerm;33775;47.992;11.864;2023-05-10T07:24:58;36.77;29.92;39.58;;
46749;Laerm;33775;47.992;11.864;2023-05-10T07:27:24;36.78;31.68;39.46;;
46749;Laerm;33775;47.992;11.864;2023-05-10T07:29:49;36.88;31.68;39.46;;
46749;Laerm;33775;47.992;11.864;2023-05-10T07:32:14;36.90;32.93;39.81;;
46749;Laerm;33775;47.992;11.864;2023-05-10T07:34:39;36.90;31.68;39.58;;
46749;Laerm;33775;47.992;11.864;2023-05-10T07:37:05;36.98;32.93;39.92;;
46749;Laerm;33775;47.992;11.864;2023-05-10T07:39:31;37.07;32.93;39.81;;
46749;Laerm;33775;47.992;11.864;2023-05-10T07:41:56;37.11;32.35;40.80;;
46749;Laerm;33775;47.992;11.864;2023-05-10T07:44:22;37.09;32.35;39.81;;
46749;Laerm;33775;47.992;11.864;2023-05-10T07:46:47;37.11;31.68;39.81;;
46749;Laerm;33775;47.992;11.864;2023-05-10T07:49:13;37.13;32.93;39.92;;
46749;Laerm;33775;47.992;11.864;2023-05-10T07:51:38;37.08;31.68;40.23;;
46749;Laerm;33775;47.992;11.864;2023-05-10T07:54:03;37.07;31.68;40.03;;
46749;Laerm;33775;47.992;11.864;2023-05-10T07:56:30;37.09;31.68;39.92;;
46749;Laerm;33775;47.992;11.864;2023-05-10T07:58:56;37.07;31.68;39.92;;
46749;Laerm;33775;47.992;11.864;2023-05-10T08:01:22;36.97;31.68;40.13;;
46749;Laerm;33775;47.992;11.864;2023-05-10T08:03:47;36.95;30.89;39.89;;
46749;Laerm;33775;47.992;11.864;2023-05-10T08:06:13;36.93;31.68;39.58;;
46749;Laerm;33775;47.992;11.864;2023-05-10T08:08:40;36.88;31.68;39.58;;
46749;Laerm;33775;47.992;11.864;2023-05-10T08:11:05;36.91;31.68;39.81;;
46749;Laerm;33775;47.992;11.864;2023-05-10T08:13:30;36.90;31.68;39.92;;
46749;Laerm;33775;47.992;11.864;2023-05-10T08:15:56;36.89;32.35;39.92;;
46749;Laerm;33775;47.992;11.864;2023-05-10T08:18:21;36.92;30.89;39.78;;
46749;Laerm;33775;47.992;11.864;2023-05-10T08:20:46;36.89;29.92;39.92;;
46749;Laerm;33775;47.992;11.864;2023-05-10T08:23:12;36.90;31.68;39.92;;
46749;Laerm;33775;47.992;11.864;2023-05-10T08:25:37;36.91;31.68;39.58;;
46749;Laerm;33775;47.992;11.864;2023-05-10T08:28:02;36.93;32.35;40.13;;
46749;Laerm;33775;47.992;11.864;2023-05-10T08:30:27;36.92;31.68;39.81;;
46749;Laerm;33775;47.992;11.864;2023-05-10T08:32:53;36.93;32.35;39.70;;
46749;Laerm;33775;47.992;11.864;2023-05-10T08:35:18;36.95;31.68;39.81;;
46749;Laerm;33775;47.992;11.864;2023-05-10T08:37:43;36.96;32.35;39.92;;
46749;Laerm;33775;47.992;11.864;2023-05-10T08:40:08;36.97;31.68;39.92;;
46749;Laerm;33775;47.992;11.864;2023-05-10T08:42:36;36.98;31.68;39.58;;
46749;Laerm;33775;47.992;11.864;2023-05-10T08:45:05;36.98;32.35;39.58;;
46749;Laerm;33775;47.992;11.864;2023-05-10T08:47:32;36.97;31.68;40.23;;
46749;Laerm;33775;47.992;11.864;2023-05-10T08:49:57;37.00;31.68;40.03;;
46749;Laerm;33775;47.992;11.864;2023-05-10T08:52:24;36.97;29.92;39.92;;
46749;Laerm;33775;47.992;11.864;2023-05-10T08:54:51;36.95;29.92;40.03;;
46749;Laerm;33775;47.992;11.864;2023-05-10T08:57:16;36.94;31.68;40.03;;
46749;Laerm;33775;47.992;11.864;2023-05-10T08:59:42;36.93;31.68;39.81;;
46749;Laerm;33775;47.992;11.864;2023-05-10T09:02:07;36.91;31.68;39.58;;
46749;Laerm;33775;47.992;11.864;2023-05-10T09:04:34;36.96;32.35;39.92;;
46749;Laerm;33775;47.992;11.864;2023-05-10T09:06:59;37.05;31.68;39.70;;
46749;Laerm;33775;47.992;11.864;2023-05-10T09:09:26;37.11;32.35;39.92;;
46749;Laerm;33775;47.992;11.864;2023-05-10T09:11:52;37.10;32.93;39.81;;
46749;Laerm;33775;47.992;11.864;2023-05-10T09:14:18;37.09;29.92;39.92;;
46749;Laerm;33775;47.992;11.864;2023-05-10T09:16:43;37.06;31.68;39.89;;
46749;Laerm;33775;47.992;11.864;2023-05-10T09:19:08;37.02;29.92;39.81;;
46749;Laerm;33775;47.992;11.864;2023-05-10T09:21:35;36.99;32.35;39.92;;
46749;Laerm;33775;47.992;11.864;2023-05-10T09:24:05;36.98;31.68;39.70;;
46749;Laerm;33775;47.992;11.864;2023-05-10T09:26:30;36.95;31.68;39.81;;
46749;Laerm;33775;47.992;11.864;2023-05-10T09:28:57;36.96;31.68;39.81;;
46749;Laerm;33775;47.992;11.864;2023-05-10T09:31:22;36.92;30.89;40.23;;
46749;Laerm;33775;47.992;11.864;2023-05-10T09:33:49;36.94;31.68;39.58;;
46749;Laerm;33775;47.992;11.864;2023-05-10T09:36:15;36.94;30.89;40.23;;
46749;Laerm;33775;47.992;11.864;2023-05-10T09:38:50;37.08;31.68;40.13;;
46749;Laerm;33775;47.992;11.864;2023-05-10T09:41:20;37.16;31.68;40.23;;
46749;Laerm;33775;47.992;11.864;2023-05-10T09:43:46;37.12;30.89;40.03;;
46749;Laerm;33775;47.992;11.864;2023-05-10T09:46:11;37.13;32.35;40.03;;
46749;Laerm;33775;47.992;11.864;2023-05-10T09:48:41;37.10;30.89;39.81;;
46749;Laerm;33775;47.992;11.864;2023-05-10T09:51:07;37.11;30.89;40.03;;
46749;Laerm;33775;47.992;11.864;2023-05-10T09:53:32;37.12;31.68;39.81;;
46749;Laerm;33775;47.992;11.864;2023-05-10T09:55:57;37.10;31.68;39.81;;
46749;Laerm;33775;47.992;11.864;2023-05-10T09:58:22;37.11;31.68;40.23;;
46749;Laerm;33775;47.992;11.864;2023-05-10T10:00:47;37.12;32.35;40.13;;
46749;Laerm;33775;47.992;11.864;2023-05-10T10:03:16;37.12;32.35;39.81;;
46749;Laerm;33775;47.992;11.864;2023-05-10T10:05:42;37.11;32.35;39.92;;
46749;Laerm;33775;47.992;11.864;2023-05-10T10:08:08;37.13;30.89;40.33;;
46749;Laerm;33775;47.992;11.864;2023-05-10T10:10:33;37.12;31.68;39.99;;
46749;Laerm;33775;47.992;11.864;2023-05-10T10:12:59;37.10;31.68;39.81;;
46749;Laerm;33775;47.992;11.864;2023-05-10T10:15:24;37.09;32.35;40.03;;
46749;Laerm;33775;47.992;11.864;2023-05-10T10:17:50;37.09;32.35;40.13;;
46749;Laerm;33775;47.992;11.864;2023-05-10T10:20:16;37.09;32.35;40.13;;
46749;Laerm;33775;47.992;11.864;2023-05-10T10:22:41;37.09;32.93;39.92;;
46749;Laerm;33775;47.992;11.864;2023-05-10T10:25:08;37.09;32.35;40.03;;
46749;Laerm;33775;47.992;11.864;2023-05-10T10:28:19;37.11;31.68;40.23;;
46749;Laerm;33775;47.992;11.864;2023-05-10T10:30:42;37.09;31.68;40.33;;
46749;Laerm;33775;47.992;11.864;2023-05-10T10:35:48;37.08;31.68;40.13;;
46749;Laerm;33775;47.992;11.864;2023-05-10T10:38:14;37.07;31.68;40.43;;
46749;Laerm;33775;47.992;11.864;2023-05-10T10:40:40;37.07;31.68;40.62;;
46749;Laerm;33775;47.992;11.864;2023-05-10T10:43:24;37.04;30.89;39.81;;
46749;Laerm;33775;47.992;11.864;2023-05-10T10:48:33;36.98;30.89;40.03;;
46749;Laerm;33775;47.992;11.864;2023-05-10T10:50:59;36.96;29.92;40.13;;
46749;Laerm;33775;47.992;11.864;2023-05-10T10:53:27;36.95;30.89;40.03;;
46749;Laerm;33775;47.992;11.864;2023-05-10T10:56:02;36.97;30.89;39.70;;
46749;Laerm;33775;47.992;11.864;2023-05-10T10:58:29;36.95;32.35;39.92;;
46749;Laerm;33775;47.992;11.864;2023-05-10T11:01:17;36.98;31.68;39.92;;
46749;Laerm;33775;47.992;11.864;2023-05-10T11:06:32;37.09;28.67;40.13;;
46749;Laerm;33775;47.992;11.864;2023-05-10T11:08:58;37.06;29.92;40.33;;
46749;Laerm;33775;47.992;11.864;2023-05-10T11:11:24;37.11;31.68;39.92;;
46749;Laerm;33775;47.992;11.864;2023-05-10T11:13:50;37.11;32.35;40.33;;
46749;Laerm;33775;47.992;11.864;2023-05-10T11:16:17;37.08;32.35;39.81;;
46749;Laerm;33775;47.992;11.864;2023-05-10T11:21:27;37.06;30.89;39.92;;
46749;Laerm;33775;47.992;11.864;2023-05-10T11:23:53;37.07;32.35;39.92;;
46749;Laerm;33775;47.992;11.864;2023-05-10T11:26:21;36.88;30.89;39.70;;
46749;Laerm;33775;47.992;11.864;2023-05-10T11:28:51;36.75;32.35;39.70;;
46749;Laerm;33775;47.992;11.864;2023-05-10T11:31:17;36.65;31.68;39.46;;
46749;Laerm;33775;47.992;11.864;2023-05-10T11:33:43;36.59;30.89;39.46;;
46749;Laerm;33775;47.992;11.864;2023-05-10T11:36:16;36.74;31.68;39.58;;
46749;Laerm;33775;47.992;11.864;2023-05-10T11:38:41;36.72;30.89;39.70;;
46749;Laerm;33775;47.992;11.864;2023-05-10T11:41:10;36.56;30.89;39.58;;
46749;Laerm;33775;47.992;11.864;2023-05-10T11:43:36;36.83;29.92;39.34;;
46749;Laerm;33775;47.992;11.864;2023-05-10T11:46:03;36.70;29.92;39.46;;
46749;Laerm;33775;47.992;11.864;2023-05-10T11:48:29;36.36;29.92;39.81;;
46749;Laerm;33775;47.992;11.864;2023-05-10T11:50:54;36.41;28.67;40.03;;
46749;Laerm;33775;47.992;11.864;2023-05-10T11:53:21;36.23;28.67;39.21;;
46749;Laerm;33775;47.992;11.864;2023-05-10T11:55:47;36.27;26.91;39.58;;
46749;Laerm;33775;47.992;11.864;2023-05-10T11:58:13;36.27;29.92;39.58;;
46749;Laerm;33775;47.992;11.864;2023-05-10T12:00:38;36.24;29.92;39.46;;
46749;Laerm;33775;47.992;11.864;2023-05-10T12:03:03;36.20;28.67;39.70;;
46749;Laerm;33775;47.992;11.864;2023-05-10T12:05:31;36.24;28.67;39.46;;
46749;Laerm;33775;47.992;11.864;2023-05-10T12:08:10;36.33;29.92;39.34;;
46749;Laerm;33775;47.992;11.864;2023-05-10T12:10:35;36.36;28.67;39.46;;
46749;Laerm;33775;47.992;11.864;2023-05-10T12:13:00;36.80;29.92;59.66;;
46749;Laerm;33775;47.992;11.864;2023-05-10T12:15:25;36.52;28.67;41.06;;
46749;Laerm;33775;47.992;11.864;2023-05-10T12:17:52;36.32;29.92;39.34;;
46749;Laerm;33775;47.992;11.864;2023-05-10T12:20:21;36.21;29.92;39.34;;
46749;Laerm;33775;47.992;11.864;2023-05-10T12:22:49;36.23;29.92;39.34;;
46749;Laerm;33775;47.992;11.864;2023-05-10T12:25:14;36.26;28.67;39.46;;
46749;Laerm;33775;47.992;11.864;2023-05-10T12:27:41;36.32;28.67;39.81;;
46749;Laerm;33775;47.992;11.864;2023-05-10T12:30:06;36.31;29.92;39.08;;
46749;Laerm;33775;47.992;11.864;2023-05-10T12:32:38;36.35;28.67;39.58;;
46749;Laerm;33775;47.992;11.864;2023-05-10T12:35:04;36.42;29.92;39.46;;
46749;Laerm;33775;47.992;11.864;2023-05-10T12:37:29;36.44;26.91;39.58;;
46749;Laerm;33775;47.992;11.864;2023-05-10T12:39:54;36.43;28.67;39.34;;
46749;Laerm;33775;47.992;11.864;2023-05-10T12:42:19;36.37;29.92;39.58;;
46749;Laerm;33775;47.992;11.864;2023-05-10T12:44:45;36.38;29.92;39.46;;
46749;Laerm;33775;47.992;11.864;2023-05-10T12:47:10;36.44;28.67;39.58;;
46749;Laerm;33775;47.992;11.864;2023-05-10T12:49:36;36.46;28.67;39.34;;
46749;Laerm;33775;47.992;11.864;2023-05-10T12:52:01;37.12;30.89;39.81;;
46749;Laerm;33775;47.992;11.864;2023-05-10T12:54:26;36.92;28.67;39.34;;
46749;Laerm;33775;47.992;11.864;2023-05-10T12:56:51;36.33;28.67;39.46;;
46749;Laerm;33775;47.992;11.864;2023-05-10T12:59:16;36.42;28.67;39.46;;
46749;Laerm;33775;47.992;11.864;2023-05-10T13:01:41;36.40;28.67;39.34;;
46749;Laerm;33775;47.992;11.864;2023-05-10T13:04:07;36.40;26.91;39.81;;
46749;Laerm;33775;47.992;11.864;2023-05-10T13:06:32;36.40;28.67;39.34;;
46749;Laerm;33775;47.992;11.864;2023-05-10T13:08:57;36.42;29.92;39.34;;
46749;Laerm;33775;47.992;11.864;2023-05-10T13:11:22;36.33;30.89;39.34;;
46749;Laerm;33775;47.992;11.864;2023-05-10T13:13:47;36.36;26.91;39.34;;
46749;Laerm;33775;47.992;11.864;2023-05-10T13:16:13;36.32;28.67;39.58;;
46749;Laerm;33775;47.992;11.864;2023-05-10T13:18:38;36.41;29.92;39.34;;
46749;Laerm;33775;47.992;11.864;2023-05-10T13:21:03;36.42;26.91;39.46;;
46749;Laerm;33775;47.992;11.864;2023-05-10T13:23:30;36.43;29.92;39.46;;
46749;Laerm;33775;47.992;11.864;2023-05-10T13:25:55;36.47;29.92;39.70;;
46749;Laerm;33775;47.992;11.864;2023-05-10T13:28:20;36.48;29.92;39.21;;
46749;Laerm;33775;47.992;11.864;2023-05-10T13:30:45;36.51;29.92;39.46;;
46749;Laerm;33775;47.992;11.864;2023-05-10T13:33:11;36.50;29.92;39.46;;
46749;Laerm;33775;47.992;11.864;2023-05-10T13:35:36;36.57;30.89;39.21;;
46749;Laerm;33775;47.992;11.864;2023-05-10T13:38:01;36.55;28.67;39.34;;
46749;Laerm;33775;47.992;11.864;2023-05-10T13:40:26;36.52;30.89;39.70;;
46749;Laerm;33775;47.992;11.864;2023-05-10T13:42:52;36.51;30.89;39.70;;
46749;Laerm;33775;47.992;11.864;2023-05-10T13:45:18;36.51;29.57;39.58;;
46749;Laerm;33775;47.992;11.864;2023-05-10T13:47:43;36.54;30.89;39.21;;
46749;Laerm;33775;47.992;11.864;2023-05-10T13:50:08;36.49;29.92;39.21;;
46749;Laerm;33775;47.992;11.864;2023-05-10T13:52:33;36.57;28.67;39.46;;
46749;Laerm;33775;47.992;11.864;2023-05-10T13:54:59;36.58;30.89;39.58;;
46749;Laerm;33775;47.992;11.864;2023-05-10T13:57:24;36.61;31.68;39.70;;
46749;Laerm;33775;47.992;11.864;2023-05-10T13:59:49;36.55;30.89;39.58;;